Time;durP1;ratioP1;P1;durP2;ratioP2;P2;SDS_P1;SDS_P2;PMS_P1;PMS_P2;Temp;Humidity;BMP_temperature;BMP_pressure;BME280_temperature;BME280_humidity;BME280_pressure;Samples;Min_cycle;Max_cycle;Signal;HPM_P1;HPM_P2
2022/08/15 00:01:30;;;;;;;7.15;6.55;;;;;;;;;;4989990;28;20221;-75
2022/08/15 00:04:02;;;;;;;7.00;6.30;;;;;;;;;;4991110;28;20604;-75
2022/08/15 00:06:34;;;;;;;7.00;6.50;;;;;;;;;;4985794;28;20194;-74
2022/08/15 00:09:12;;;;;;;6.75;6.15;;;;;;;;;;4993939;28;20283;-75
2022/08/15 00:11:42;;;;;;;6.55;5.97;;;;;;;;;;4994926;28;20680;-75
2022/08/15 00:14:15;;;;;;;6.97;6.40;;;;;;;;;;4985001;28;20244;-74
2022/08/15 00:16:48;;;;;;;6.75;6.13;;;;;;;;;;4994326;28;20208;-75
2022/08/15 00:19:20;;;;;;;6.63;6.13;;;;;;;;;;4992741;28;20237;-75
2022/08/15 00:21:54;;;;;;;6.15;5.65;;;;;;;;;;4993944;28;20237;-75
2022/08/15 00:24:26;;;;;;;6.35;5.85;;;;;;;;;;4991791;28;20217;-75
2022/08/15 00:26:58;;;;;;;6.03;5.53;;;;;;;;;;4992897;28;20208;-75
2022/08/15 00:29:27;;;;;;;6.07;5.63;;;;;;;;;;4991179;28;20225;-75
2022/08/15 00:32:06;;;;;;;6.25;5.75;;;;;;;;;;4993333;28;20212;-75
2022/08/15 00:34:55;;;;;;;6.10;5.55;;;;;;;;;;4999297;28;20204;-75
2022/08/15 00:37:24;;;;;;;6.25;5.60;;;;;;;;;;4992490;28;20201;-75
2022/08/15 00:39:54;;;;;;;6.05;5.60;;;;;;;;;;4992911;28;20229;-75
2022/08/15 00:42:24;;;;;;;6.05;5.55;;;;;;;;;;4992168;28;20335;-75
2022/08/15 00:44:57;;;;;;;5.82;5.43;;;;;;;;;;4988127;28;20619;-75
2022/08/15 00:47:35;;;;;;;6.03;5.53;;;;;;;;;;4992081;28;20292;-75
2022/08/15 00:50:06;;;;;;;6.75;6.25;;;;;;;;;;4992221;28;20697;-75
2022/08/15 00:52:55;;;;;;;6.63;6.00;;;;;;;;;;4985196;28;20279;-75
2022/08/15 00:55:27;;;;;;;6.63;6.05;;;;;;;;;;4991092;28;20209;-74
2022/08/15 00:57:57;;;;;;;6.80;6.25;;;;;;;;;;4992227;28;20207;-75
2022/08/15 01:00:33;;;;;;;7.18;6.38;;;;;;;;;;4991897;28;20197;-74
2022/08/15 01:03:13;;;;;;;6.72;6.13;;;;;;;;;;4992713;28;20690;-75
2022/08/15 01:05:45;;;;;;;6.70;6.20;;;;;;;;;;4984264;28;20304;-75
2022/08/15 01:08:16;;;;;;;6.80;6.20;;;;;;;;;;4999024;28;20221;-74
2022/08/15 01:10:48;;;;;;;6.38;5.90;;;;;;;;;;4991907;28;20208;-75
2022/08/15 01:13:27;;;;;;;6.40;5.90;;;;;;;;;;4991608;28;20205;-75
2022/08/15 01:16:16;;;;;;;6.65;6.15;;;;;;;;;;4991724;28;20241;-75
2022/08/15 01:18:45;;;;;;;6.55;5.97;;;;;;;;;;4991748;28;20316;-75
2022/08/15 01:21:17;;;;;;;6.50;6.00;;;;;;;;;;4991581;28;20252;-75
2022/08/15 01:23:56;;;;;;;6.32;5.85;;;;;;;;;;4991676;28;20287;-75
2022/08/15 01:26:27;;;;;;;6.38;5.78;;;;;;;;;;4996934;28;20253;-75
2022/08/15 01:29:13;;;;;;;6.30;5.90;;;;;;;;;;4997587;28;20315;-75
2022/08/15 01:31:45;;;;;;;6.18;5.68;;;;;;;;;;4994232;28;20239;-75
2022/08/15 01:34:17;;;;;;;6.40;5.90;;;;;;;;;;4992571;28;20210;-75
2022/08/15 01:36:47;;;;;;;6.90;6.38;;;;;;;;;;4991620;28;20210;-75
2022/08/15 01:39:20;;;;;;;6.63;6.03;;;;;;;;;;4990749;28;20229;-75
2022/08/15 01:41:52;;;;;;;6.22;5.70;;;;;;;;;;4991806;28;20288;-75
2022/08/15 01:44:26;;;;;;;6.70;6.07;;;;;;;;;;4991602;28;20656;-75
2022/08/15 01:47:03;;;;;;;6.60;6.10;;;;;;;;;;4990353;28;20213;-74
2022/08/15 01:49:43;;;;;;;7.57;6.97;;;;;;;;;;4984782;28;20217;-74
2022/08/15 01:52:13;;;;;;;7.55;6.85;;;;;;;;;;4989311;28;20212;-74
2022/08/15 01:55:02;;;;;;;7.60;7.00;;;;;;;;;;4989910;28;20272;-74
2022/08/15 01:57:35;;;;;;;7.88;7.15;;;;;;;;;;4992108;28;20212;-74
2022/08/15 02:00:06;;;;;;;7.35;6.72;;;;;;;;;;4991167;28;20228;-74
2022/08/15 02:02:46;;;;;;;8.13;7.32;;;;;;;;;;4992434;28;20217;-74
2022/08/15 02:05:15;;;;;;;7.53;6.60;;;;;;;;;;4992890;28;20296;-75
2022/08/15 02:07:43;;;;;;;7.50;6.88;;;;;;;;;;4988671;28;20256;-75
2022/08/15 02:10:27;;;;;;;7.88;6.90;;;;;;;;;;4990298;28;20201;-74
2022/08/15 02:12:57;;;;;;;7.40;6.80;;;;;;;;;;4991679;28;20635;-75
2022/08/15 02:15:43;;;;;;;7.75;7.05;;;;;;;;;;4994153;28;20319;-74
2022/08/15 02:18:12;;;;;;;8.60;7.80;;;;;;;;;;4993373;28;20697;-74
2022/08/15 02:20:47;;;;;;;8.27;7.53;;;;;;;;;;4991906;28;20212;-74
2022/08/15 02:23:19;;;;;;;8.02;7.43;;;;;;;;;;4993474;28;20680;-74
2022/08/15 02:25:50;;;;;;;8.40;7.70;;;;;;;;;;4988888;28;20205;-75
2022/08/15 02:28:23;;;;;;;8.27;7.47;;;;;;;;;;4978851;28;21289;-75
2022/08/15 02:31:10;;;;;;;8.80;8.10;;;;;;;;;;4992719;28;20219;-74
2022/08/15 02:33:41;;;;;;;8.70;7.90;;;;;;;;;;4993587;28;20196;-74
2022/08/15 02:36:16;;;;;;;9.25;7.88;;;;;;;;;;4993809;28;20371;-74
2022/08/15 02:38:59;;;;;;;8.95;8.15;;;;;;;;;;4992541;28;20224;-74
2022/08/15 02:41:30;;;;;;;9.00;8.13;;;;;;;;;;4994367;28;20662;-74
2022/08/15 02:44:13;;;;;;;8.93;8.15;;;;;;;;;;4989418;28;20272;-74
2022/08/15 02:46:50;;;;;;;8.55;7.85;;;;;;;;;;4993621;28;20212;-74
2022/08/15 02:49:36;;;;;;;8.85;8.15;;;;;;;;;;4988690;28;20225;-74
2022/08/15 02:52:17;;;;;;;8.55;7.85;;;;;;;;;;4994043;28;20661;-74
2022/08/15 02:54:49;;;;;;;8.90;8.20;;;;;;;;;;4989021;28;20616;-74
2022/08/15 02:57:31;;;;;;;8.80;8.00;;;;;;;;;;4988758;28;20214;-75
2022/08/15 03:00:22;;;;;;;9.05;8.35;;;;;;;;;;4988739;28;20232;-74
2022/08/15 03:02:55;;;;;;;8.85;8.13;;;;;;;;;;4993522;28;20709;-74
2022/08/15 03:05:24;;;;;;;9.02;8.23;;;;;;;;;;4992322;28;20627;-74
2022/08/15 03:07:52;;;;;;;9.65;8.75;;;;;;;;;;4993530;28;20209;-74
2022/08/15 03:10:22;;;;;;;8.93;8.13;;;;;;;;;;4993259;28;20208;-74
2022/08/15 03:13:00;;;;;;;9.00;8.30;;;;;;;;;;4987623;28;20216;-74
2022/08/15 03:15:32;;;;;;;9.15;8.45;;;;;;;;;;4990657;28;20673;-74
2022/08/15 03:18:02;;;;;;;9.35;8.50;;;;;;;;;;4993217;28;20209;-75
2022/08/15 03:20:30;;;;;;;9.88;8.85;;;;;;;;;;4992582;28;20287;-74
2022/08/15 03:23:03;;;;;;;9.55;8.75;;;;;;;;;;4992662;28;20311;-74
2022/08/15 03:25:32;;;;;;;8.80;8.05;;;;;;;;;;4991836;28;20247;-74
2022/08/15 03:28:17;;;;;;;8.98;8.27;;;;;;;;;;4987195;28;20224;-74
2022/08/15 03:30:58;;;;;;;9.45;8.55;;;;;;;;;;4987477;28;20548;-74
2022/08/15 03:33:27;;;;;;;12.35;9.27;;;;;;;;;;4991803;28;20284;-74
2022/08/15 03:36:17;;;;;;;9.45;8.65;;;;;;;;;;4985319;28;20615;-74
2022/08/15 03:38:50;;;;;;;8.93;8.23;;;;;;;;;;4995040;28;20240;-74
2022/08/15 03:41:23;;;;;;;10.00;9.20;;;;;;;;;;4998034;28;20193;-74
2022/08/15 03:43:53;;;;;;;9.43;8.73;;;;;;;;;;4998732;28;20221;-74
2022/08/15 03:46:23;;;;;;;9.13;8.32;;;;;;;;;;4997211;28;20211;-74
2022/08/15 03:48:53;;;;;;;9.57;8.77;;;;;;;;;;4995627;28;20252;-75
2022/08/15 03:51:25;;;;;;;9.88;8.70;;;;;;;;;;4996581;28;20220;-75
2022/08/15 03:53:59;;;;;;;9.68;8.63;;;;;;;;;;4994592;28;20216;-75
2022/08/15 03:56:30;;;;;;;10.07;9.25;;;;;;;;;;4997246;28;20296;-74
2022/08/15 03:58:59;;;;;;;9.88;9.07;;;;;;;;;;4984007;28;20232;-75
2022/08/15 04:01:32;;;;;;;9.95;9.15;;;;;;;;;;4991922;28;20215;-74
2022/08/15 04:04:02;;;;;;;9.15;8.35;;;;;;;;;;4993437;28;20232;-75
2022/08/15 04:06:33;;;;;;;10.38;8.05;;;;;;;;;;4996359;28;20201;-74
2022/08/15 04:09:01;;;;;;;11.13;8.90;;;;;;;;;;4993947;28;20228;-75
2022/08/15 04:11:41;;;;;;;9.60;8.75;;;;;;;;;;4992178;28;20251;-74
2022/08/15 04:14:10;;;;;;;9.88;9.00;;;;;;;;;;4991985;28;20224;-74
2022/08/15 04:17:00;;;;;;;9.70;8.88;;;;;;;;;;4995074;28;20263;-74
2022/08/15 04:19:46;;;;;;;9.80;9.00;;;;;;;;;;4994404;28;20228;-75
2022/08/15 04:22:17;;;;;;;9.13;8.32;;;;;;;;;;4986127;28;20220;-74
2022/08/15 04:25:07;;;;;;;8.98;8.27;;;;;;;;;;4994158;28;20760;-75
2022/08/15 04:27:46;;;;;;;9.85;8.90;;;;;;;;;;4984401;28;20289;-74
2022/08/15 04:30:20;;;;;;;9.30;8.55;;;;;;;;;;4990266;28;20240;-74
2022/08/15 04:32:50;;;;;;;9.50;8.60;;;;;;;;;;4986824;28;20201;-74
2022/08/15 04:35:27;;;;;;;9.68;8.68;;;;;;;;;;4993605;28;20292;-74
2022/08/15 04:37:58;;;;;;;9.43;8.18;;;;;;;;;;4993184;28;20700;-74
2022/08/15 04:40:28;;;;;;;9.23;8.43;;;;;;;;;;4995515;28;20202;-74
2022/08/15 04:43:17;;;;;;;9.20;8.40;;;;;;;;;;4991937;28;20240;-74
2022/08/15 04:45:46;;;;;;;9.32;8.52;;;;;;;;;;4990728;28;20268;-74
2022/08/15 04:48:17;;;;;;;8.77;7.97;;;;;;;;;;4993684;28;20564;-74
2022/08/15 04:50:51;;;;;;;9.65;8.85;;;;;;;;;;4993762;28;20658;-74
2022/08/15 04:53:21;;;;;;;9.10;8.25;;;;;;;;;;4994278;28;20197;-74
2022/08/15 04:55:58;;;;;;;9.48;8.57;;;;;;;;;;4994858;28;20604;-74
2022/08/15 04:58:29;;;;;;;9.30;8.45;;;;;;;;;;4993600;28;20225;-74
2022/08/15 05:01:19;;;;;;;9.02;7.95;;;;;;;;;;4992523;28;20201;-74
2022/08/15 05:03:51;;;;;;;9.77;8.82;;;;;;;;;;4990897;28;20335;-74
2022/08/15 05:06:24;;;;;;;9.65;8.68;;;;;;;;;;4993813;28;20205;-74
2022/08/15 05:08:59;;;;;;;11.90;8.93;;;;;;;;;;4994394;28;20316;-75
2022/08/15 05:11:30;;;;;;;9.32;8.48;;;;;;;;;;4992920;28;20697;-74
2022/08/15 05:14:19;;;;;;;8.95;8.13;;;;;;;;;;4993021;28;20205;-74
2022/08/15 05:17:07;;;;;;;9.10;8.30;;;;;;;;;;4992926;28;20693;-75
2022/08/15 05:19:39;;;;;;;9.25;8.43;;;;;;;;;;4994758;28;20229;-74
2022/08/15 05:22:08;;;;;;;9.48;8.57;;;;;;;;;;4994286;28;20204;-74
2022/08/15 05:24:37;;;;;;;9.50;8.70;;;;;;;;;;4995168;28;20694;-74
2022/08/15 05:27:07;;;;;;;9.52;8.60;;;;;;;;;;4993184;28;20205;-74
2022/08/15 05:29:38;;;;;;;9.80;9.00;;;;;;;;;;4994176;28;20232;-74
2022/08/15 05:32:09;;;;;;;8.90;8.20;;;;;;;;;;4994746;28;20205;-74
2022/08/15 05:34:47;;;;;;;10.43;8.55;;;;;;;;;;4994875;28;20229;-75
2022/08/15 05:37:17;;;;;;;9.35;8.65;;;;;;;;;;4994238;28;20236;-74
2022/08/15 05:39:49;;;;;;;9.15;8.35;;;;;;;;;;4993819;28;20229;-74
2022/08/15 05:42:28;;;;;;;9.30;8.50;;;;;;;;;;4993675;28;20618;-75
2022/08/15 05:45:03;;;;;;;8.93;8.23;;;;;;;;;;4994651;28;20209;-74
2022/08/15 05:47:37;;;;;;;9.45;8.70;;;;;;;;;;4994662;28;20555;-75
2022/08/15 05:50:21;;;;;;;9.95;8.80;;;;;;;;;;4993115;28;20312;-75
2022/08/15 05:53:00;;;;;;;8.77;7.97;;;;;;;;;;4994108;28;20205;-75
2022/08/15 05:55:37;;;;;;;9.07;8.23;;;;;;;;;;4993930;28;20291;-74
2022/08/15 05:58:19;;;;;;;9.57;8.30;;;;;;;;;;4995077;28;20215;-72
2022/08/15 06:01:19;;;;;;;9.70;8.90;;;;;;;;;;4980499;28;20225;-72
2022/08/15 06:03:51;;;;;;;9.02;8.23;;;;;;;;;;4994268;28;20611;-72
2022/08/15 06:06:23;;;;;;;9.68;8.75;;;;;;;;;;4994451;28;20229;-73
2022/08/15 06:08:59;;;;;;;9.85;8.95;;;;;;;;;;4983651;28;20225;-72
2022/08/15 06:11:31;;;;;;;9.38;8.68;;;;;;;;;;4994380;28;20205;-72
2022/08/15 06:14:02;;;;;;;9.73;8.93;;;;;;;;;;4993273;28;20227;-75
2022/08/15 06:16:33;;;;;;;9.70;8.90;;;;;;;;;;4994371;28;20205;-73
2022/08/15 06:22:09;;;;;;;10.10;9.10;;;;;;;;;;4994045;28;20205;-72
2022/08/15 06:24:44;;;;;;;9.27;8.48;;;;;;;;;;4993973;28;20304;-73
2022/08/15 06:27:20;;;;;;;9.32;8.57;;;;;;;;;;4994099;28;20255;-73
2022/08/15 06:30:09;;;;;;;10.00;8.95;;;;;;;;;;4993817;28;20279;-73
2022/08/15 06:32:41;;;;;;;9.10;8.40;;;;;;;;;;4975874;28;20202;-72
2022/08/15 06:35:18;;;;;;;9.55;8.70;;;;;;;;;;4991689;28;20227;-73
2022/08/15 06:38:01;;;;;;;9.45;8.65;;;;;;;;;;4994995;28;20263;-72
2022/08/15 06:40:51;;;;;;;9.43;8.55;;;;;;;;;;4993195;28;20216;-72
2022/08/15 06:43:22;;;;;;;9.60;8.77;;;;;;;;;;4993275;28;20288;-72
2022/08/15 06:45:52;;;;;;;9.20;8.40;;;;;;;;;;4993294;28;20259;-73
2022/08/15 06:48:24;;;;;;;9.43;8.52;;;;;;;;;;4994543;28;20735;-72
2022/08/15 06:51:14;;;;;;;9.45;8.55;;;;;;;;;;4992454;28;20263;-72
2022/08/15 06:53:48;;;;;;;9.57;8.77;;;;;;;;;;4993165;28;20209;-72
2022/08/15 06:56:21;;;;;;;9.40;8.50;;;;;;;;;;4993485;28;20292;-72
2022/08/15 06:59:00;;;;;;;8.93;8.15;;;;;;;;;;4993932;28;20250;-72
2022/08/15 07:01:39;;;;;;;9.70;8.90;;;;;;;;;;4994220;28;20213;-72
2022/08/15 07:04:43;;;;;;;10.13;8.70;;;;;;;;;;4993220;28;20209;-72
2022/08/15 07:07:17;;;;;;;9.02;8.13;;;;;;;;;;4994052;28;20583;-72
2022/08/15 07:09:52;;;;;;;9.18;8.27;;;;;;;;;;4993844;28;20320;-72
2022/08/15 07:12:26;;;;;;;9.32;8.45;;;;;;;;;;4996312;28;20240;-72
2022/08/15 07:15:06;;;;;;;9.07;8.27;;;;;;;;;;4996790;28;20295;-72
2022/08/15 07:17:38;;;;;;;9.20;8.35;;;;;;;;;;4998101;28;20205;-72
2022/08/15 07:20:10;;;;;;;9.10;8.40;;;;;;;;;;4997711;28;20259;-72
2022/08/15 07:22:59;;;;;;;9.90;8.90;;;;;;;;;;4979245;28;20202;-72
2022/08/15 07:25:32;;;;;;;9.48;8.63;;;;;;;;;;4997677;28;20224;-72
2022/08/15 07:28:03;;;;;;;9.35;8.57;;;;;;;;;;4998121;28;20213;-72
2022/08/15 07:30:44;;;;;;;10.07;8.20;;;;;;;;;;4997869;28;20574;-72
2022/08/15 07:33:28;;;;;;;9.27;8.13;;;;;;;;;;4997276;28;20650;-72
2022/08/15 07:36:05;;;;;;;9.68;8.77;;;;;;;;;;4993297;28;20288;-75
2022/08/15 07:38:34;;;;;;;9.38;8.48;;;;;;;;;;4997144;28;20229;-72
2022/08/15 07:41:16;;;;;;;9.55;8.55;;;;;;;;;;4994078;28;20244;-72
2022/08/15 07:43:45;;;;;;;10.85;8.77;;;;;;;;;;4994849;28;20209;-72
2022/08/15 07:46:16;;;;;;;9.75;8.57;;;;;;;;;;4997242;28;20232;-72
2022/08/15 07:48:56;;;;;;;14.73;9.38;;;;;;;;;;4997435;28;20232;-73
2022/08/15 07:51:27;;;;;;;12.60;8.80;;;;;;;;;;4997231;28;20213;-73
2022/08/15 07:54:02;;;;;;;9.50;8.52;;;;;;;;;;4996354;28;20208;-73
2022/08/15 07:56:36;;;;;;;9.40;8.45;;;;;;;;;;4990637;28;20201;-73
2022/08/15 07:59:20;;;;;;;10.23;8.48;;;;;;;;;;4996905;28;20225;-73
2022/08/15 08:01:54;;;;;;;9.85;8.80;;;;;;;;;;4997437;28;20577;-73
2022/08/15 08:04:24;;;;;;;9.43;8.65;;;;;;;;;;4996457;28;20695;-75
2022/08/15 08:06:55;;;;;;;9.15;8.32;;;;;;;;;;4997146;28;20236;-74
2022/08/15 08:09:29;;;;;;;9.13;8.43;;;;;;;;;;4997061;28;20225;-75
2022/08/15 08:12:07;;;;;;;9.07;8.23;;;;;;;;;;4997711;28;20262;-74
2022/08/15 08:14:40;;;;;;;9.60;8.70;;;;;;;;;;4995020;28;20590;-74
2022/08/15 08:17:13;;;;;;;9.40;8.50;;;;;;;;;;4997295;28;20225;-73
2022/08/15 08:19:48;;;;;;;8.70;7.93;;;;;;;;;;4996610;28;20260;-75
2022/08/15 08:22:26;;;;;;;9.80;7.97;;;;;;;;;;4997320;28;20534;-74
2022/08/15 08:25:00;;;;;;;10.18;8.13;;;;;;;;;;4995869;28;20207;-75
2022/08/15 08:27:45;;;;;;;9.13;8.27;;;;;;;;;;4996171;28;20292;-74
2022/08/15 08:30:23;;;;;;;9.02;8.18;;;;;;;;;;4995165;28;20300;-74
2022/08/15 08:33:15;;;;;;;9.02;8.15;;;;;;;;;;4996391;28;20259;-74
2022/08/15 08:35:45;;;;;;;8.82;7.95;;;;;;;;;;4996439;28;20205;-75
2022/08/15 08:38:21;;;;;;;9.48;7.85;;;;;;;;;;4996516;28;20256;-75
2022/08/15 08:41:29;;;;;;;9.73;8.43;;;;;;;;;;4994157;28;20686;-74
2022/08/15 08:44:04;;;;;;;9.05;8.18;;;;;;;;;;4992893;28;20624;-75
2022/08/15 08:46:52;;;;;;;13.05;8.65;;;;;;;;;;4989145;28;20232;-75
2022/08/15 08:49:24;;;;;;;10.27;8.02;;;;;;;;;;4996320;28;20239;-75
2022/08/15 08:52:15;;;;;;;8.85;8.00;;;;;;;;;;4996787;28;20577;-74
2022/08/15 08:54:58;;;;;;;9.80;8.05;;;;;;;;;;4995192;28;20202;-75
2022/08/15 08:57:32;;;;;;;11.70;7.80;;;;;;;;;;4996677;28;20697;-74
2022/08/15 09:00:06;;;;;;;9.15;8.32;;;;;;;;;;4996447;28;20220;-75
2022/08/15 09:02:37;;;;;;;8.93;8.13;;;;;;;;;;4996400;28;20201;-75
2022/08/15 09:05:29;;;;;;;9.05;8.13;;;;;;;;;;4995789;28;20213;-74
2022/08/15 09:08:16;;;;;;;9.07;8.23;;;;;;;;;;4996235;28;20264;-74
2022/08/15 09:10:59;;;;;;;8.38;7.40;;;;;;;;;;4996105;28;20205;-74
2022/08/15 09:13:35;;;;;;;9.50;8.63;;;;;;;;;;4995900;28;20205;-74
2022/08/15 09:16:10;;;;;;;9.05;8.15;;;;;;;;;;4996091;28;20229;-74
2022/08/15 09:18:42;;;;;;;8.77;8.13;;;;;;;;;;4996136;28;20316;-74
2022/08/15 09:21:17;;;;;;;8.73;8.02;;;;;;;;;;4996050;28;20215;-74
2022/08/15 09:23:47;;;;;;;9.27;8.48;;;;;;;;;;4995375;28;20205;-76
2022/08/15 09:26:23;;;;;;;8.90;8.13;;;;;;;;;;4995969;28;20232;-74
2022/08/15 09:29:04;;;;;;;9.10;8.38;;;;;;;;;;4996087;28;20736;-74
2022/08/15 09:31:53;;;;;;;9.23;8.35;;;;;;;;;;4976771;28;20210;-74
2022/08/15 09:34:44;;;;;;;8.20;7.18;;;;;;;;;;4985999;28;20248;-74
2022/08/15 09:37:24;;;;;;;7.47;6.85;;;;;;;;;;4995556;28;20205;-74
2022/08/15 09:40:12;;;;;;;8.25;7.55;;;;;;;;;;4995007;28;20230;-75
2022/08/15 09:43:12;;;;;;;9.38;7.60;;;;;;;;;;4975849;28;20209;-75
2022/08/15 09:45:57;;;;;;;7.78;7.00;;;;;;;;;;4994903;28;20638;-74
2022/08/15 09:48:45;;;;;;;8.70;7.43;;;;;;;;;;4994992;28;21173;-75
2022/08/15 09:51:34;;;;;;;7.57;7.03;;;;;;;;;;4994877;28;20213;-75
2022/08/15 09:54:05;;;;;;;8.70;7.18;;;;;;;;;;4993821;28;20208;-75
2022/08/15 09:57:09;;;;;;;8.13;7.07;;;;;;;;;;4975806;28;20314;-74
2022/08/15 09:59:37;;;;;;;9.00;6.90;;;;;;;;;;4987992;28;20225;-74
2022/08/15 10:02:20;;;;;;;7.38;6.88;;;;;;;;;;4995369;28;20204;-74
2022/08/15 10:05:23;;;;;;;7.50;6.93;;;;;;;;;;4994629;28;20205;-75
2022/08/15 10:07:52;;;;;;;7.70;7.05;;;;;;;;;;4975849;28;20233;-74
2022/08/15 10:10:24;;;;;;;7.30;6.70;;;;;;;;;;4993914;28;20205;-74
2022/08/15 10:13:18;;;;;;;7.53;6.63;;;;;;;;;;4994502;28;20209;-75
2022/08/15 10:15:47;;;;;;;7.25;6.55;;;;;;;;;;4993276;28;20209;-75
2022/08/15 10:18:37;;;;;;;7.13;6.43;;;;;;;;;;4994171;28;20231;-76
2022/08/15 10:21:19;;;;;;;7.13;6.57;;;;;;;;;;4991391;28;20255;-76
2022/08/15 10:23:50;;;;;;;8.15;7.43;;;;;;;;;;4993822;28;20205;-76
2022/08/15 10:26:28;;;;;;;7.43;6.82;;;;;;;;;;4994250;28;20212;-75
2022/08/15 10:29:24;;;;;;;8.07;7.38;;;;;;;;;;4994868;28;20693;-76
2022/08/15 10:31:54;;;;;;;8.30;7.47;;;;;;;;;;4971908;28;20241;-77
2022/08/15 10:34:53;;;;;;;7.57;6.97;;;;;;;;;;4987600;28;20572;-75
2022/08/15 10:37:29;;;;;;;7.93;7.32;;;;;;;;;;4994545;28;20573;-75
2022/08/15 10:40:27;;;;;;;8.25;7.35;;;;;;;;;;4994315;28;20257;-75
2022/08/15 10:43:11;;;;;;;8.48;7.65;;;;;;;;;;4974707;28;20216;-75
2022/08/15 10:45:48;;;;;;;8.35;7.60;;;;;;;;;;4992894;28;20296;-76
2022/08/15 10:48:29;;;;;;;8.30;7.55;;;;;;;;;;4993868;28;20262;-76
2022/08/15 10:51:25;;;;;;;8.63;7.30;;;;;;;;;;4984192;28;20271;-76
2022/08/15 10:54:01;;;;;;;8.65;7.68;;;;;;;;;;4993327;28;20201;-76
2022/08/15 10:56:33;;;;;;;7.82;7.18;;;;;;;;;;4994049;28;20211;-76
2022/08/15 10:59:24;;;;;;;8.50;7.80;;;;;;;;;;4994239;28;20284;-76
2022/08/15 11:01:53;;;;;;;8.70;7.85;;;;;;;;;;4994273;28;20209;-76
2022/08/15 11:04:25;;;;;;;8.35;7.55;;;;;;;;;;4993303;28;20236;-76
2022/08/15 11:07:18;;;;;;;7.70;7.10;;;;;;;;;;4994345;28;20221;-76
2022/08/15 11:09:55;;;;;;;8.23;7.03;;;;;;;;;;4993759;28;20244;-77
2022/08/15 11:12:26;;;;;;;6.95;6.30;;;;;;;;;;4994121;28;20670;-76
2022/08/15 11:14:56;;;;;;;7.07;6.20;;;;;;;;;;4981453;28;20633;-76
2022/08/15 11:17:28;;;;;;;8.23;6.55;;;;;;;;;;4974827;28;20297;-76
2022/08/15 11:20:16;;;;;;;6.88;6.28;;;;;;;;;;4989937;28;20312;-77
2022/08/15 11:22:50;;;;;;;7.22;6.53;;;;;;;;;;4994359;28;20208;-76
2022/08/15 11:25:25;;;;;;;9.50;6.38;;;;;;;;;;4993578;28;20228;-76
2022/08/15 11:28:02;;;;;;;6.70;6.10;;;;;;;;;;4994101;28;20212;-76
2022/08/15 11:30:58;;;;;;;5.75;5.03;;;;;;;;;;4979790;28;20259;-76
2022/08/15 11:33:30;;;;;;;5.95;5.10;;;;;;;;;;4994119;28;20197;-76
2022/08/15 11:36:08;;;;;;;5.70;5.18;;;;;;;;;;4993524;28;20276;-77
2022/08/15 11:38:39;;;;;;;5.82;5.32;;;;;;;;;;4993857;28;20657;-77
2022/08/15 11:41:29;;;;;;;8.60;5.80;;;;;;;;;;4993732;28;20236;-76
2022/08/15 11:44:01;;;;;;;6.30;5.80;;;;;;;;;;4993606;28;20654;-76
2022/08/15 11:46:32;;;;;;;7.40;5.93;;;;;;;;;;4993806;28;20193;-77
2022/08/15 11:49:05;;;;;;;7.28;6.50;;;;;;;;;;4993447;28;20229;-76
2022/08/15 11:51:40;;;;;;;6.68;6.07;;;;;;;;;;4974760;28;20234;-77
2022/08/15 11:54:28;;;;;;;6.55;5.70;;;;;;;;;;4985755;28;20255;-77
2022/08/15 11:57:05;;;;;;;7.43;5.80;;;;;;;;;;4994377;28;20197;-77
2022/08/15 12:00:02;;;;;;;8.02;5.90;;;;;;;;;;4997747;28;20225;-76
2022/08/15 12:02:36;;;;;;;6.43;5.80;;;;;;;;;;4998648;28;20244;-75
2022/08/15 12:05:14;;;;;;;7.82;5.97;;;;;;;;;;5017412;28;20245;-76
2022/08/15 12:08:04;;;;;;;6.50;5.43;;;;;;;;;;5017254;28;20328;-76
2022/08/15 12:11:02;;;;;;;6.13;5.53;;;;;;;;;;4983801;28;20213;-76
2022/08/15 12:13:36;;;;;;;7.88;4.90;;;;;;;;;;4997360;28;20586;-76
2022/08/15 12:16:25;;;;;;;5.35;4.85;;;;;;;;;;4977804;28;20658;-76
2022/08/15 12:18:57;;;;;;;7.68;4.90;;;;;;;;;;4992364;28;20256;-76
2022/08/15 12:21:27;;;;;;;8.68;5.68;;;;;;;;;;4996342;28;20206;-76
2022/08/15 12:24:02;;;;;;;9.10;5.28;;;;;;;;;;4996490;28;20189;-75
2022/08/15 12:26:32;;;;;;;6.22;4.88;;;;;;;;;;4995357;28;20252;-75
2022/08/15 12:29:16;;;;;;;5.80;4.93;;;;;;;;;;4996881;28;20227;-75
2022/08/15 12:31:50;;;;;;;7.18;4.82;;;;;;;;;;4998735;28;20200;-77
2022/08/15 12:34:31;;;;;;;7.90;4.57;;;;;;;;;;4978986;28;20643;-77
2022/08/15 12:37:07;;;;;;;5.05;4.53;;;;;;;;;;4983607;28;20212;-78
2022/08/15 12:39:38;;;;;;;6.38;4.60;;;;;;;;;;4996334;28;20670;-78
2022/08/15 12:42:09;;;;;;;4.80;4.30;;;;;;;;;;4993287;28;20230;-77
2022/08/15 12:45:00;;;;;;;4.95;4.00;;;;;;;;;;4996610;28;20608;-76
2022/08/15 12:47:30;;;;;;;7.53;4.22;;;;;;;;;;4977208;28;20194;-77
2022/08/15 12:50:00;;;;;;;4.55;4.15;;;;;;;;;;4992001;28;20321;-77
2022/08/15 12:52:29;;;;;;;4.28;3.90;;;;;;;;;;4993758;28;20204;-76
2022/08/15 12:54:58;;;;;;;4.50;3.60;;;;;;;;;;4992817;28;20235;-76
2022/08/15 12:57:29;;;;;;;5.57;3.90;;;;;;;;;;4988329;28;20201;-76
2022/08/15 13:00:20;;;;;;;7.03;3.80;;;;;;;;;;4995209;28;20235;-77
2022/08/15 13:03:07;;;;;;;6.40;3.90;;;;;;;;;;4992664;28;20244;-76
2022/08/15 13:05:53;;;;;;;4.28;3.47;;;;;;;;;;4990821;28;20213;-77
2022/08/15 13:08:43;;;;;;;4.60;3.60;;;;;;;;;;4993284;28;20689;-76
2022/08/15 13:11:21;;;;;;;3.53;3.15;;;;;;;;;;4994671;28;20736;-77
2022/08/15 13:13:50;;;;;;;4.90;3.58;;;;;;;;;;4992041;28;20688;-76
2022/08/15 13:16:24;;;;;;;3.78;3.05;;;;;;;;;;4998083;28;20200;-76
2022/08/15 13:19:18;;;;;;;3.88;3.22;;;;;;;;;;5004395;28;20225;-75
2022/08/15 13:24:58;;;;;;;3.72;3.40;;;;;;;;;;4995606;28;20204;-77
2022/08/15 13:27:28;;;;;;;5.55;3.38;;;;;;;;;;4985265;28;20285;-76
2022/08/15 13:29:57;;;;;;;3.85;3.28;;;;;;;;;;4990029;28;20255;-75
2022/08/15 13:32:31;;;;;;;3.50;3.20;;;;;;;;;;4992822;28;20193;-76
2022/08/15 13:34:59;;;;;;;3.90;3.60;;;;;;;;;;4995202;28;20207;-75
2022/08/15 13:37:37;;;;;;;4.05;3.30;;;;;;;;;;4998058;28;20201;-75
2022/08/15 13:40:25;;;;;;;3.38;3.08;;;;;;;;;;4986060;28;20209;-78
2022/08/15 13:42:58;;;;;;;3.35;3.05;;;;;;;;;;4995257;28;20202;-78
2022/08/15 13:45:30;;;;;;;4.75;3.20;;;;;;;;;;4992699;28;20202;-77
2022/08/15 13:48:35;;;;;;;5.00;3.10;;;;;;;;;;4992649;28;20270;-77
2022/08/15 13:51:10;;;;;;;3.42;3.22;;;;;;;;;;4984766;28;20212;-78
2022/08/15 13:53:40;;;;;;;3.40;3.10;;;;;;;;;;4996603;28;20201;-78
2022/08/15 13:56:29;;;;;;;3.42;3.15;;;;;;;;;;4982903;28;20220;-78
2022/08/15 13:59:01;;;;;;;3.58;3.28;;;;;;;;;;4990400;28;20241;-77
2022/08/15 14:01:30;;;;;;;4.38;3.13;;;;;;;;;;4997813;28;20208;-77
2022/08/15 14:04:04;;;;;;;3.63;3.28;;;;;;;;;;4989648;28;20284;-78
2022/08/15 14:06:35;;;;;;;3.13;2.92;;;;;;;;;;4993261;28;20211;-77
2022/08/15 14:09:03;;;;;;;3.28;3.08;;;;;;;;;;4998281;28;20230;-77
2022/08/15 14:11:46;;;;;;;3.60;3.30;;;;;;;;;;4985240;28;20273;-78
2022/08/15 14:14:25;;;;;;;3.55;3.25;;;;;;;;;;4985351;28;20209;-77
2022/08/15 14:17:04;;;;;;;3.28;2.83;;;;;;;;;;4993767;28;20201;-77
2022/08/15 14:19:33;;;;;;;4.18;3.00;;;;;;;;;;4992455;28;20221;-77
2022/08/15 14:22:24;;;;;;;3.33;2.92;;;;;;;;;;4991494;28;20614;-77
2022/08/15 14:24:56;;;;;;;3.50;3.20;;;;;;;;;;4992317;28;20201;-77
2022/08/15 14:27:45;;;;;;;4.03;3.72;;;;;;;;;;4992808;28;20206;-78
2022/08/15 14:30:18;;;;;;;4.45;3.90;;;;;;;;;;4992506;28;20356;-77
2022/08/15 14:32:47;;;;;;;4.20;3.55;;;;;;;;;;4981182;28;20214;-77
2022/08/15 14:35:21;;;;;;;4.65;3.70;;;;;;;;;;4987506;28;20209;-77
2022/08/15 14:38:11;;;;;;;4.80;3.70;;;;;;;;;;4985191;28;20256;-77
2022/08/15 14:41:01;;;;;;;4.45;3.80;;;;;;;;;;4994859;28;20252;-77
2022/08/15 14:43:32;;;;;;;3.97;3.58;;;;;;;;;;4994289;28;20201;-77
2022/08/15 14:46:10;;;;;;;5.65;3.80;;;;;;;;;;4993159;28;20220;-77
2022/08/15 14:48:59;;;;;;;4.15;3.75;;;;;;;;;;4995692;28;20225;-76
2022/08/15 14:51:30;;;;;;;3.63;3.33;;;;;;;;;;4995302;28;20204;-75
2022/08/15 14:54:20;;;;;;;3.97;3.47;;;;;;;;;;4993680;28;20201;-75
2022/08/15 14:57:09;;;;;;;3.67;3.38;;;;;;;;;;4986488;28;20205;-75
2022/08/15 14:59:38;;;;;;;4.30;3.13;;;;;;;;;;4994081;28;20228;-76
2022/08/15 15:02:27;;;;;;;4.22;3.40;;;;;;;;;;4989540;28;20256;-76
2022/08/15 15:05:12;;;;;;;3.72;3.42;;;;;;;;;;4985685;28;20241;-75
2022/08/15 15:07:44;;;;;;;4.05;3.58;;;;;;;;;;4994124;28;20212;-75
2022/08/15 15:10:30;;;;;;;3.60;3.35;;;;;;;;;;4993553;28;20212;-76
2022/08/15 15:13:00;;;;;;;4.85;3.60;;;;;;;;;;4993675;28;20192;-76
2022/08/15 15:15:30;;;;;;;3.72;3.42;;;;;;;;;;4992908;28;20745;-76
2022/08/15 15:18:11;;;;;;;3.42;3.20;;;;;;;;;;4993792;28;20681;-77
2022/08/15 15:21:00;;;;;;;3.92;3.60;;;;;;;;;;4991232;28;20210;-76
2022/08/15 15:23:30;;;;;;;3.97;3.63;;;;;;;;;;4993566;28;20209;-76
2022/08/15 15:26:02;;;;;;;3.88;3.58;;;;;;;;;;4980473;28;20201;-76
2022/08/15 15:28:31;;;;;;;4.65;3.67;;;;;;;;;;4993277;28;20304;-77
2022/08/15 15:31:09;;;;;;;3.70;3.40;;;;;;;;;;4990343;28;20329;-77
2022/08/15 15:33:37;;;;;;;4.00;3.70;;;;;;;;;;4995252;28;20208;-77
2022/08/15 15:36:12;;;;;;;3.75;3.45;;;;;;;;;;4997312;28;20189;-77
2022/08/15 15:39:01;;;;;;;3.95;3.55;;;;;;;;;;4997131;28;20235;-77
2022/08/15 15:41:33;;;;;;;4.35;3.60;;;;;;;;;;4997561;28;20201;-77
2022/08/15 15:44:15;;;;;;;4.10;3.80;;;;;;;;;;4994420;28;20284;-76
2022/08/15 15:46:47;;;;;;;4.22;3.92;;;;;;;;;;4997047;28;20203;-77
2022/08/15 15:49:21;;;;;;;4.45;4.05;;;;;;;;;;4997251;28;20654;-76